createdAt,value
2018-05-10T00:01:00.837Z,13.77
2018-05-10T00:03:29.135Z,13.81
2018-05-10T00:05:57.468Z,13.80
2018-05-10T00:08:25.777Z,13.83
2018-05-10T00:10:54.179Z,13.86
2018-05-10T00:13:22.560Z,13.86
2018-05-10T00:15:50.936Z,13.94
2018-05-10T00:18:19.344Z,13.80
2018-05-10T00:20:47.684Z,13.68
2018-05-10T00:23:16.072Z,13.61
2018-05-10T00:25:44.535Z,13.81
2018-05-10T00:28:12.849Z,13.91
2018-05-10T00:30:41.193Z,13.99
2018-05-10T00:33:09.577Z,13.92
2018-05-10T00:35:37.903Z,13.80
2018-05-10T00:38:06.233Z,13.82
2018-05-10T00:40:34.573Z,13.48
2018-05-10T00:43:03.035Z,13.55
2018-05-10T00:45:31.385Z,13.58
2018-05-10T00:47:59.749Z,13.63
2018-05-10T00:50:28.056Z,13.72
2018-05-10T00:52:56.385Z,13.61
2018-05-10T00:55:24.701Z,13.80
2018-05-10T00:57:53.025Z,13.81
2018-05-10T01:00:21.344Z,13.85
2018-05-10T01:02:49.676Z,13.87
2018-05-10T01:05:17.997Z,13.76
2018-05-10T01:07:46.314Z,13.73
2018-05-10T01:10:14.624Z,13.58
2018-05-10T01:12:43.032Z,13.37
2018-05-10T01:15:11.345Z,13.46
2018-05-10T01:17:39.686Z,13.55
2018-05-10T01:20:07.994Z,13.58
2018-05-10T01:22:36.326Z,13.56
2018-05-10T01:25:04.633Z,13.60
2018-05-10T01:27:32.990Z,13.51
2018-05-10T01:30:01.373Z,13.59
2018-05-10T01:32:29.745Z,13.46
2018-05-10T01:35:10.106Z,13.40
2018-05-10T01:37:38.488Z,13.33
2018-05-10T01:40:06.823Z,13.40
2018-05-10T01:42:35.308Z,13.09
2018-05-10T01:45:03.672Z,13.03
2018-05-10T01:47:31.999Z,12.93
2018-05-10T01:50:00.335Z,13.11
2018-05-10T01:52:28.662Z,13.17
2018-05-10T01:54:56.994Z,13.25
2018-05-10T01:57:25.306Z,13.18
2018-05-10T01:59:53.626Z,13.29
2018-05-10T02:02:21.957Z,13.25
2018-05-10T02:04:50.297Z,13.22
2018-05-10T02:07:18.711Z,13.22
2018-05-10T02:09:47.053Z,13.19
2018-05-10T02:12:15.361Z,13.26
2018-05-10T02:14:43.734Z,13.20
2018-05-10T02:17:12.003Z,13.10
2018-05-10T02:19:40.340Z,12.99
2018-05-10T02:22:08.658Z,13.20
2018-05-10T02:24:37.056Z,13.20
2018-05-10T02:27:05.423Z,13.24
2018-05-10T02:29:33.703Z,13.30
2018-05-10T02:32:02.019Z,13.36
2018-05-10T02:34:31.451Z,13.13
2018-05-10T02:36:59.795Z,12.94
2018-05-10T02:39:28.142Z,12.75
2018-05-10T02:41:56.517Z,12.57
2018-05-10T02:44:24.906Z,12.58
2018-05-10T02:46:53.225Z,12.59
2018-05-10T02:49:21.555Z,12.81
2018-05-10T02:51:49.899Z,12.83
2018-05-10T02:54:18.324Z,12.84
2018-05-10T02:56:46.652Z,12.90
2018-05-10T02:59:15.060Z,12.80
2018-05-10T03:01:43.407Z,12.87
2018-05-10T03:04:11.828Z,12.59
2018-05-10T03:06:40.220Z,12.54
2018-05-10T03:09:08.592Z,12.48
2018-05-10T03:11:36.969Z,12.43
2018-05-10T03:14:05.336Z,12.47
2018-05-10T03:16:33.671Z,12.34
2018-05-10T03:19:01.977Z,12.32
2018-05-10T03:21:30.345Z,12.33
2018-05-10T03:23:58.664Z,12.40
2018-05-10T03:26:26.997Z,12.25
2018-05-10T03:28:55.309Z,12.17
2018-05-10T03:31:23.692Z,11.99
2018-05-10T03:33:52.005Z,12.17
2018-05-10T03:36:20.364Z,12.00
2018-05-10T03:38:48.688Z,11.83
2018-05-10T03:41:17.017Z,11.96
2018-05-10T03:43:45.372Z,11.86
2018-05-10T03:46:13.684Z,11.88
2018-05-10T03:48:42.140Z,11.74
2018-05-10T03:51:10.462Z,11.80
2018-05-10T03:53:38.880Z,11.87
2018-05-10T03:56:07.202Z,11.86
2018-05-10T03:58:35.631Z,11.80
2018-05-10T04:01:03.949Z,11.80
2018-05-10T04:03:44.157Z,12.18
2018-05-10T04:06:24.317Z,12.09
2018-05-10T04:09:04.589Z,12.20
2018-05-10T04:11:32.960Z,12.34
2018-05-10T04:14:01.297Z,12.36
2018-05-10T04:16:29.608Z,12.30
2018-05-10T04:18:57.948Z,12.45
2018-05-10T04:21:26.364Z,12.34
2018-05-10T04:23:54.722Z,12.46
2018-05-10T04:26:23.020Z,12.51
2018-05-10T04:28:51.449Z,12.45
2018-05-10T04:31:19.788Z,12.58
2018-05-10T04:33:48.158Z,12.63
2018-05-10T04:36:16.493Z,12.58
2018-05-10T04:38:44.801Z,12.65
2018-05-10T04:41:13.145Z,12.74
2018-05-10T04:43:41.457Z,12.73
2018-05-10T04:46:09.813Z,12.81
2018-05-10T04:48:38.121Z,12.82
2018-05-10T04:51:06.461Z,12.80
2018-05-10T04:53:34.772Z,12.75
2018-05-10T04:56:03.104Z,12.81
2018-05-10T04:58:31.436Z,12.81
2018-05-10T05:00:59.768Z,12.87
2018-05-10T05:03:28.110Z,12.95
2018-05-10T05:05:56.474Z,13.08
2018-05-10T05:08:24.796Z,13.13
2018-05-10T05:10:53.133Z,13.23
2018-05-10T05:13:21.438Z,13.33
2018-05-10T05:15:49.777Z,13.52
2018-05-10T05:18:18.105Z,13.58
2018-05-10T05:20:46.417Z,13.71
2018-05-10T05:23:14.816Z,13.83
2018-05-10T05:25:43.140Z,13.93
2018-05-10T05:28:11.501Z,14.03
2018-05-10T05:30:40.262Z,14.15
2018-05-10T05:33:08.723Z,14.23
2018-05-10T05:35:37.093Z,14.33
2018-05-10T05:38:05.362Z,14.47
2018-05-10T05:40:33.670Z,14.58
2018-05-10T05:43:02.001Z,14.66
2018-05-10T05:45:30.426Z,14.71
2018-05-10T05:47:58.784Z,14.78
2018-05-10T05:50:27.097Z,14.78
2018-05-10T05:52:55.437Z,14.82
2018-05-10T05:55:23.750Z,14.94
2018-05-10T05:57:52.085Z,15.00
2018-05-10T06:00:20.481Z,15.03
2018-05-10T06:02:48.825Z,15.14
2018-05-10T06:05:17.121Z,15.00
2018-05-10T06:07:45.452Z,15.05
2018-05-10T06:10:13.789Z,15.07
2018-05-10T06:12:42.113Z,15.31
2018-05-10T06:15:10.490Z,15.38
2018-05-10T06:17:38.821Z,15.39
2018-05-10T06:20:07.161Z,15.53
2018-05-10T06:22:35.883Z,15.61
2018-05-10T06:25:04.326Z,15.69
2018-05-10T06:27:32.888Z,15.86
2018-05-10T06:30:01.398Z,15.89
2018-05-10T06:32:29.707Z,15.92
2018-05-10T06:34:58.104Z,16.12
2018-05-10T06:37:26.418Z,16.23
2018-05-10T06:39:54.740Z,16.16
2018-05-10T06:42:23.045Z,16.31
2018-05-10T06:44:51.375Z,16.34
2018-05-10T06:47:20.071Z,16.40
2018-05-10T06:49:48.448Z,16.44
2018-05-10T06:52:16.849Z,16.54
2018-05-10T06:54:45.221Z,16.57
2018-05-10T06:57:13.481Z,16.61
2018-05-10T06:59:41.849Z,16.65
2018-05-10T07:02:10.249Z,16.72
2018-05-10T07:04:38.618Z,16.82
2018-05-10T07:07:07.001Z,16.92
2018-05-10T07:09:36.113Z,16.96
2018-05-10T07:12:04.324Z,17.06
2018-05-10T07:14:32.638Z,17.05
2018-05-10T07:17:00.971Z,17.05
2018-05-10T07:19:29.274Z,17.14
2018-05-10T07:21:57.827Z,17.42
2018-05-10T07:24:26.170Z,17.21
2018-05-10T07:26:54.497Z,17.38
2018-05-10T07:29:22.927Z,17.44
2018-05-10T07:31:51.250Z,17.54
2018-05-10T07:34:19.557Z,17.46
2018-05-10T07:36:48.041Z,17.36
2018-05-10T07:39:16.660Z,17.45
2018-05-10T07:41:46.182Z,17.59
2018-05-10T07:44:14.728Z,17.83
2018-05-10T07:46:43.028Z,17.96
2018-05-10T07:49:12.049Z,18.34
2018-05-10T07:51:40.413Z,18.12
2018-05-10T07:54:08.735Z,18.29
2018-05-10T07:56:37.038Z,18.44
2018-05-10T07:59:05.368Z,18.90
2018-05-10T08:01:33.755Z,18.35
2018-05-10T08:04:02.103Z,18.85
2018-05-10T08:06:30.440Z,18.62
2018-05-10T08:08:58.824Z,18.34
2018-05-10T08:11:27.133Z,19.06
2018-05-10T08:13:55.450Z,19.28
2018-05-10T08:16:23.767Z,19.34
2018-05-10T08:18:52.092Z,19.39
2018-05-10T08:21:21.121Z,19.30
2018-05-10T08:23:49.445Z,19.55
2018-05-10T08:26:17.925Z,18.99
2018-05-10T08:28:46.547Z,19.07
2018-05-10T08:31:14.941Z,19.18
2018-05-10T08:33:43.320Z,18.72
2018-05-10T08:36:11.698Z,19.40
2018-05-10T08:38:40.080Z,19.26
2018-05-10T08:41:08.380Z,19.18
2018-05-10T08:43:36.748Z,19.21
2018-05-10T08:46:05.062Z,18.84
2018-05-10T08:48:33.422Z,18.93
2018-05-10T08:51:02.032Z,19.28
2018-05-10T08:53:30.338Z,19.23
2018-05-10T08:55:58.671Z,19.82
2018-05-10T08:58:27.035Z,19.62
2018-05-10T09:00:55.365Z,19.92
2018-05-10T09:03:23.751Z,19.90
2018-05-10T09:05:53.489Z,19.58
2018-05-10T09:08:21.802Z,19.25
2018-05-10T09:10:50.245Z,19.20
2018-05-10T09:13:18.689Z,18.98
2018-05-10T09:15:47.024Z,19.03
2018-05-10T09:18:15.356Z,19.14
2018-05-10T09:20:43.735Z,19.06
2018-05-10T09:23:12.072Z,19.39
2018-05-10T09:25:40.390Z,19.30
2018-05-10T09:28:08.741Z,19.30
2018-05-10T09:30:37.046Z,19.38
2018-05-10T09:33:05.397Z,19.70
2018-05-10T09:35:33.794Z,19.89
2018-05-10T09:38:02.169Z,19.83
2018-05-10T09:40:30.473Z,19.75
2018-05-10T09:42:58.817Z,19.73
2018-05-10T09:45:27.245Z,19.73
2018-05-10T09:47:55.565Z,19.82
2018-05-10T09:50:23.945Z,19.84
2018-05-10T09:52:52.353Z,20.33
2018-05-10T09:55:20.693Z,20.70
2018-05-10T09:57:49.045Z,20.56
2018-05-10T10:00:23.106Z,20.81
2018-05-10T10:02:51.521Z,20.78
2018-05-10T10:05:19.853Z,21.40
2018-05-10T10:07:48.191Z,21.00
2018-05-10T10:10:16.513Z,21.17
2018-05-10T10:12:44.905Z,20.79
2018-05-10T10:15:13.225Z,21.05
2018-05-10T10:17:41.589Z,20.56
2018-05-10T10:20:09.938Z,20.38
2018-05-10T10:22:38.430Z,20.63
2018-05-10T10:25:06.756Z,20.63
2018-05-10T10:27:35.202Z,20.48
2018-05-10T10:30:03.553Z,20.71
2018-05-10T10:32:31.870Z,20.56
2018-05-10T10:35:00.203Z,20.26
2018-05-10T10:37:28.557Z,20.15
2018-05-10T10:39:56.905Z,20.51
2018-05-10T10:42:25.226Z,20.58
2018-05-10T10:44:53.605Z,20.78
2018-05-10T10:47:21.921Z,21.27
2018-05-10T10:49:50.267Z,20.82
2018-05-10T10:52:18.576Z,20.60
2018-05-10T10:54:46.912Z,21.23
2018-05-10T10:57:15.226Z,21.46
2018-05-10T10:59:43.567Z,21.50
2018-05-10T11:02:11.889Z,21.29
2018-05-10T11:04:40.226Z,21.17
2018-05-10T11:07:08.561Z,21.06
2018-05-10T11:09:36.885Z,21.05
2018-05-10T11:12:05.279Z,20.87
2018-05-10T11:14:33.589Z,21.24
2018-05-10T11:17:02.018Z,21.35
2018-05-10T11:19:30.389Z,21.86
2018-05-10T11:21:58.736Z,22.04
2018-05-10T11:24:27.059Z,21.94
2018-05-10T11:26:55.395Z,21.43
2018-05-10T11:29:23.707Z,21.51
2018-05-10T11:31:52.045Z,21.08
2018-05-10T11:34:20.341Z,20.85
2018-05-10T11:36:48.689Z,21.77
2018-05-10T11:39:17.029Z,22.36
2018-05-10T11:41:45.581Z,22.08
2018-05-10T11:44:13.974Z,23.66
2018-05-10T11:46:42.361Z,23.01
2018-05-10T11:49:10.700Z,23.15
2018-05-10T11:51:39.117Z,22.70
2018-05-10T11:54:07.436Z,23.93
2018-05-10T11:56:35.881Z,23.53
2018-05-10T11:59:04.205Z,23.39
2018-05-10T12:01:32.514Z,23.65
2018-05-10T12:04:01.025Z,24.24
2018-05-10T12:06:29.337Z,23.32
2018-05-10T12:08:57.677Z,22.46
2018-05-10T12:11:25.992Z,22.02
2018-05-10T12:13:54.417Z,21.36
2018-05-10T12:16:22.745Z,23.81
2018-05-10T12:18:51.161Z,24.85
2018-05-10T12:21:19.565Z,25.18
2018-05-10T12:23:47.880Z,22.79
2018-05-10T12:26:16.201Z,22.58
2018-05-10T12:28:44.538Z,24.63
2018-05-10T12:31:12.854Z,22.95
2018-05-10T12:33:41.184Z,22.41
2018-05-10T12:36:09.504Z,24.69
2018-05-10T12:38:37.892Z,25.83
2018-05-10T12:41:06.269Z,25.62
2018-05-10T12:43:34.653Z,22.95
2018-05-10T12:46:02.978Z,24.00
2018-05-10T12:48:31.323Z,24.99
2018-05-10T12:50:59.735Z,24.77
2018-05-10T12:53:28.052Z,25.90
2018-05-10T12:55:56.430Z,25.02
2018-05-10T12:58:24.753Z,25.19
2018-05-10T13:00:53.112Z,25.54
2018-05-10T13:03:21.468Z,24.68
2018-05-10T13:05:49.851Z,22.65
2018-05-10T13:08:18.167Z,22.06
2018-05-10T13:10:46.508Z,22.66
2018-05-10T13:13:14.963Z,23.51
2018-05-10T13:15:43.245Z,25.36
2018-05-10T13:18:11.649Z,24.52
2018-05-10T13:20:39.985Z,25.24
2018-05-10T13:23:08.293Z,26.56
2018-05-10T13:25:36.637Z,26.15
2018-05-10T13:28:05.017Z,25.92
2018-05-10T13:30:33.438Z,27.45
2018-05-10T13:33:01.803Z,26.97
2018-05-10T13:35:30.125Z,26.83
2018-05-10T13:37:58.702Z,26.68
2018-05-10T13:40:27.042Z,26.61
2018-05-10T13:42:55.361Z,27.30
2018-05-10T13:45:23.716Z,26.66
2018-05-10T13:47:52.030Z,27.84
2018-05-10T13:50:20.328Z,25.13
2018-05-10T13:52:48.684Z,24.17
2018-05-10T13:55:17.016Z,26.57
2018-05-10T13:57:45.352Z,26.66
2018-05-10T14:00:13.782Z,25.51
2018-05-10T14:02:42.118Z,27.14
2018-05-10T14:05:10.481Z,25.24
2018-05-10T14:07:38.867Z,24.54
2018-05-10T14:10:07.265Z,25.14
2018-05-10T14:12:35.659Z,24.18
2018-05-10T14:15:04.029Z,23.96
2018-05-10T14:17:32.375Z,24.04
2018-05-10T14:20:00.774Z,25.44
2018-05-10T14:22:29.156Z,24.57
2018-05-10T14:24:57.464Z,25.83
2018-05-10T14:27:25.795Z,26.77
2018-05-10T14:29:54.134Z,24.15
2018-05-10T14:32:22.632Z,23.18
2018-05-10T14:34:50.844Z,22.88
2018-05-10T14:37:19.233Z,22.60
2018-05-10T14:39:47.549Z,22.68
2018-05-10T14:42:15.897Z,22.86
2018-05-10T14:44:44.225Z,23.94
2018-05-10T14:47:12.629Z,24.33
2018-05-10T14:49:40.970Z,25.00
2018-05-10T14:52:09.285Z,26.15
2018-05-10T14:54:37.616Z,25.82
2018-05-10T14:57:05.944Z,24.31
2018-05-10T14:59:34.276Z,24.96
2018-05-10T15:02:02.604Z,22.80
2018-05-10T15:04:30.950Z,22.67
2018-05-10T15:06:59.574Z,23.36
2018-05-10T15:09:27.905Z,24.53
2018-05-10T15:11:56.213Z,23.72
2018-05-10T15:14:24.560Z,24.84
2018-05-10T15:16:52.967Z,23.63
2018-05-10T15:19:21.333Z,22.25
2018-05-10T15:21:49.729Z,21.14
2018-05-10T15:24:18.101Z,20.82
2018-05-10T15:26:46.487Z,21.22
2018-05-10T15:29:14.859Z,20.72
2018-05-10T15:31:43.311Z,20.77
2018-05-10T15:34:11.569Z,20.73
2018-05-10T15:36:39.907Z,20.66
2018-05-10T15:39:08.231Z,19.89
2018-05-10T15:41:36.650Z,19.86
2018-05-10T15:44:04.959Z,19.92
2018-05-10T15:46:33.313Z,19.87
2018-05-10T15:49:01.688Z,20.11
2018-05-10T15:51:30.078Z,19.87
2018-05-10T15:53:58.378Z,20.07
2018-05-10T15:56:26.715Z,19.66
2018-05-10T15:58:55.097Z,20.16
2018-05-10T16:01:23.426Z,20.19
2018-05-10T16:03:51.742Z,20.08
2018-05-10T16:06:20.129Z,20.45
2018-05-10T16:08:48.505Z,20.38
2018-05-10T16:11:16.884Z,22.69
2018-05-10T16:13:45.272Z,21.67
2018-05-10T16:16:13.570Z,21.02
2018-05-10T16:18:41.919Z,24.78
2018-05-10T16:21:10.339Z,23.63
2018-05-10T16:23:38.777Z,22.59
2018-05-10T16:26:07.084Z,26.03
2018-05-10T16:28:35.420Z,24.85
2018-05-10T16:31:03.836Z,26.38
2018-05-10T16:33:32.205Z,26.53
2018-05-10T16:36:00.494Z,26.72
2018-05-10T16:38:28.822Z,24.95
2018-05-10T16:40:57.141Z,25.34
2018-05-10T16:43:25.485Z,24.09
2018-05-10T16:45:53.815Z,24.04
2018-05-10T16:48:22.193Z,24.17
2018-05-10T16:50:50.492Z,24.76
2018-05-10T16:53:18.907Z,22.11
2018-05-10T16:55:47.292Z,20.59
2018-05-10T16:58:15.710Z,19.79
2018-05-10T17:00:44.067Z,19.51
2018-05-10T17:03:12.404Z,19.64
2018-05-10T17:05:40.720Z,18.68
2018-05-10T17:08:09.038Z,18.90
2018-05-10T17:10:37.366Z,18.97
2018-05-10T17:13:05.778Z,18.56
2018-05-10T17:15:34.117Z,18.42
2018-05-10T17:18:02.421Z,18.24
2018-05-10T17:20:30.765Z,18.49
2018-05-10T17:22:59.109Z,18.10
2018-05-10T17:25:27.547Z,17.90
2018-05-10T17:27:55.863Z,18.10
2018-05-10T17:30:24.288Z,18.20
2018-05-10T17:32:52.588Z,18.01
2018-05-10T17:35:21.038Z,17.78
2018-05-10T17:37:49.412Z,17.91
2018-05-10T17:40:17.829Z,17.55
2018-05-10T17:42:46.146Z,17.63
2018-05-10T17:45:14.480Z,17.44
2018-05-10T17:47:42.790Z,17.44
2018-05-10T17:50:11.138Z,17.39
2018-05-10T17:52:39.493Z,17.42
2018-05-10T17:55:07.923Z,17.33
2018-05-10T17:57:37.131Z,17.36
2018-05-10T18:00:05.539Z,17.19
2018-05-10T18:02:33.917Z,17.19
2018-05-10T18:05:02.259Z,17.40
2018-05-10T18:07:30.565Z,16.93
2018-05-10T18:09:59.762Z,17.21
2018-05-10T18:12:28.071Z,17.16
2018-05-10T18:14:56.400Z,17.08
2018-05-10T18:17:24.712Z,17.06
2018-05-10T18:19:53.110Z,17.04
2018-05-10T18:22:21.416Z,16.99
2018-05-10T18:24:49.821Z,16.84
2018-05-10T18:27:18.213Z,16.87
2018-05-10T18:29:46.589Z,16.81
2018-05-10T18:32:14.899Z,17.02
2018-05-10T18:34:43.246Z,16.87
2018-05-10T18:37:11.621Z,16.72
2018-05-10T18:39:39.996Z,17.02
2018-05-10T18:42:08.313Z,17.12
2018-05-10T18:44:36.756Z,17.02
2018-05-10T18:47:05.066Z,16.67
2018-05-10T18:49:33.448Z,16.75
2018-05-10T18:52:01.789Z,16.41
2018-05-10T18:54:30.128Z,16.41
2018-05-10T18:56:58.543Z,16.67
2018-05-10T18:59:27.012Z,16.60
2018-05-10T19:01:55.322Z,16.29
2018-05-10T19:04:23.608Z,16.18
2018-05-10T19:06:51.942Z,15.89
2018-05-10T19:09:20.322Z,16.07
2018-05-10T19:11:48.658Z,15.48
2018-05-10T19:14:16.972Z,15.74
2018-05-10T19:16:45.318Z,15.64
2018-05-10T19:19:13.629Z,15.53
2018-05-10T19:21:42.030Z,15.37
2018-05-10T19:24:10.371Z,14.86
2018-05-10T19:26:39.032Z,15.09
2018-05-10T19:29:07.353Z,14.69
2018-05-10T19:31:35.693Z,14.92
2018-05-10T19:34:04.042Z,14.45
2018-05-10T19:36:32.373Z,14.44
2018-05-10T19:39:00.687Z,13.88
2018-05-10T19:41:29.021Z,13.77
2018-05-10T19:43:58.184Z,13.38
2018-05-10T19:46:26.519Z,13.14
2018-05-10T19:48:54.900Z,13.38
2018-05-10T19:51:23.327Z,13.08
2018-05-10T19:53:51.548Z,13.10
2018-05-10T19:56:19.924Z,13.27
2018-05-10T19:58:48.240Z,12.72
2018-05-10T20:01:16.582Z,12.43
2018-05-10T20:03:44.930Z,12.47
2018-05-10T20:06:13.333Z,12.24
2018-05-10T20:08:41.695Z,12.08
2018-05-10T20:11:09.989Z,12.30
2018-05-10T20:13:38.400Z,12.60
2018-05-10T20:16:06.635Z,12.19
2018-05-10T20:18:35.025Z,11.90
2018-05-10T20:21:03.437Z,12.15
2018-05-10T20:23:31.764Z,12.37
2018-05-10T20:26:00.137Z,12.25
2018-05-10T20:28:28.513Z,11.92
2018-05-10T20:30:56.763Z,12.14
2018-05-10T20:33:25.192Z,11.91
2018-05-10T20:35:53.503Z,11.77
2018-05-10T20:38:21.848Z,12.04
2018-05-10T20:40:50.156Z,11.65
2018-05-10T20:43:18.672Z,11.92
2018-05-10T20:45:46.985Z,11.87
2018-05-10T20:48:15.384Z,11.74
2018-05-10T20:50:43.719Z,11.66
2018-05-10T20:53:12.053Z,11.73
2018-05-10T20:55:40.401Z,11.80
2018-05-10T20:58:08.713Z,11.48
2018-05-10T21:00:37.055Z,11.63
2018-05-10T21:03:05.427Z,11.65
2018-05-10T21:05:33.814Z,11.64
2018-05-10T21:08:02.187Z,11.75
2018-05-10T21:10:30.529Z,11.87
2018-05-10T21:12:58.858Z,11.92
2018-05-10T21:15:27.236Z,11.98
2018-05-10T21:17:55.547Z,11.79
2018-05-10T21:20:23.968Z,11.85
2018-05-10T21:22:52.274Z,11.70
2018-05-10T21:25:20.613Z,11.90
2018-05-10T21:27:49.026Z,11.67
2018-05-10T21:30:17.985Z,11.65
2018-05-10T21:32:46.390Z,11.98
2018-05-10T21:35:14.732Z,12.04
2018-05-10T21:37:43.081Z,11.93
2018-05-10T21:40:11.385Z,11.84
2018-05-10T21:42:39.729Z,11.90
2018-05-10T21:45:08.029Z,11.77
2018-05-10T21:47:36.449Z,11.74
2018-05-10T21:50:05.628Z,11.65
2018-05-10T21:52:33.968Z,11.76
2018-05-10T21:55:02.467Z,12.15
2018-05-10T21:57:30.778Z,12.01
2018-05-10T21:59:59.141Z,11.65
2018-05-10T22:02:27.476Z,11.47
2018-05-10T22:04:55.785Z,11.74
2018-05-10T22:07:24.203Z,11.48
2018-05-10T22:09:52.508Z,11.56
2018-05-10T22:12:20.900Z,11.90
2018-05-10T22:14:49.365Z,11.27
2018-05-10T22:17:17.716Z,11.38
2018-05-10T22:19:46.091Z,11.45
2018-05-10T22:22:14.429Z,11.34
2018-05-10T22:24:42.833Z,11.33
2018-05-10T22:27:11.175Z,11.28
2018-05-10T22:29:39.586Z,11.10
2018-05-10T22:32:07.978Z,11.06
2018-05-10T22:34:36.302Z,10.96
2018-05-10T22:37:04.616Z,11.24
2018-05-10T22:39:32.958Z,11.08
2018-05-10T22:42:01.281Z,11.18
2018-05-10T22:44:29.680Z,11.16
2018-05-10T22:46:57.937Z,11.25
2018-05-10T22:49:26.311Z,11.09
2018-05-10T22:51:54.614Z,11.12
2018-05-10T22:54:22.961Z,11.22
2018-05-10T22:56:51.269Z,11.25
2018-05-10T22:59:19.720Z,10.99
2018-05-10T23:01:48.035Z,10.99
2018-05-10T23:04:16.373Z,11.04
2018-05-10T23:06:44.740Z,10.97
2018-05-10T23:09:13.096Z,10.98
2018-05-10T23:11:41.524Z,10.77
2018-05-10T23:14:09.873Z,10.76
2018-05-10T23:16:38.276Z,10.61
2018-05-10T23:19:06.653Z,10.67
2018-05-10T23:21:34.973Z,10.70
2018-05-10T23:24:03.278Z,10.61
2018-05-10T23:26:31.609Z,10.52
2018-05-10T23:28:59.921Z,10.53
2018-05-10T23:31:28.257Z,10.71
2018-05-10T23:33:56.566Z,10.59
2018-05-10T23:36:24.893Z,10.57
2018-05-10T23:38:53.265Z,10.54
2018-05-10T23:41:21.599Z,10.46
2018-05-10T23:43:49.913Z,10.62
2018-05-10T23:46:18.238Z,10.41
2018-05-10T23:48:46.545Z,10.47
2018-05-10T23:51:14.956Z,10.55
2018-05-10T23:53:43.264Z,10.34
2018-05-10T23:56:11.696Z,10.35
2018-05-10T23:58:40.014Z,10.69
